sensor_id;sensor_type;location;lat;lon;timestamp;P1;durP1;ratioP1;P2;durP2;ratioP2
56425;SDS011;42330;43.620;3.856;2022-10-31T00:01:14;36.38;;;14.77;;
56425;SDS011;42330;43.620;3.856;2022-10-31T00:03:42;33.58;;;15.38;;
56425;SDS011;42330;43.620;3.856;2022-10-31T00:06:08;34.88;;;14.20;;
56425;SDS011;42330;43.620;3.856;2022-10-31T00:08:34;35.10;;;16.00;;
56425;SDS011;42330;43.620;3.856;2022-10-31T00:10:59;36.75;;;15.82;;
56425;SDS011;42330;43.620;3.856;2022-10-31T00:13:25;34.53;;;15.90;;
56425;SDS011;42330;43.620;3.856;2022-10-31T00:15:51;43.85;;;16.80;;
56425;SDS011;42330;43.620;3.856;2022-10-31T00:18:17;40.30;;;16.63;;
56425;SDS011;42330;43.620;3.856;2022-10-31T00:20:42;35.00;;;16.42;;
56425;SDS011;42330;43.620;3.856;2022-10-31T00:23:08;37.08;;;17.17;;
56425;SDS011;42330;43.620;3.856;2022-10-31T00:25:36;38.65;;;16.42;;
56425;SDS011;42330;43.620;3.856;2022-10-31T00:28:03;41.83;;;15.75;;
56425;SDS011;42330;43.620;3.856;2022-10-31T00:30:31;35.25;;;16.38;;
56425;SDS011;42330;43.620;3.856;2022-10-31T00:32:56;36.85;;;15.05;;
56425;SDS011;42330;43.620;3.856;2022-10-31T00:35:22;33.58;;;15.02;;
56425;SDS011;42330;43.620;3.856;2022-10-31T00:37:48;35.30;;;15.50;;
56425;SDS011;42330;43.620;3.856;2022-10-31T00:40:13;32.35;;;14.43;;
56425;SDS011;42330;43.620;3.856;2022-10-31T00:42:39;37.88;;;14.88;;
56425;SDS011;42330;43.620;3.856;2022-10-31T00:45:07;37.35;;;15.13;;
56425;SDS011;42330;43.620;3.856;2022-10-31T00:47:34;38.80;;;16.23;;
56425;SDS011;42330;43.620;3.856;2022-10-31T00:49:59;39.13;;;15.77;;
56425;SDS011;42330;43.620;3.856;2022-10-31T00:52:25;34.47;;;15.60;;
56425;SDS011;42330;43.620;3.856;2022-10-31T00:54:50;32.97;;;14.90;;
56425;SDS011;42330;43.620;3.856;2022-10-31T00:57:16;34.97;;;15.65;;
56425;SDS011;42330;43.620;3.856;2022-10-31T00:59:42;34.92;;;15.52;;
56425;SDS011;42330;43.620;3.856;2022-10-31T01:02:07;30.85;;;14.52;;
56425;SDS011;42330;43.620;3.856;2022-10-31T01:04:33;32.90;;;15.18;;
56425;SDS011;42330;43.620;3.856;2022-10-31T01:06:59;34.20;;;15.35;;
56425;SDS011;42330;43.620;3.856;2022-10-31T01:09:24;42.08;;;16.75;;
56425;SDS011;42330;43.620;3.856;2022-10-31T01:11:50;35.65;;;14.88;;
56425;SDS011;42330;43.620;3.856;2022-10-31T01:14:16;28.80;;;14.20;;
56425;SDS011;42330;43.620;3.856;2022-10-31T01:16:41;33.92;;;14.95;;
56425;SDS011;42330;43.620;3.856;2022-10-31T01:19:07;33.03;;;14.80;;
56425;SDS011;42330;43.620;3.856;2022-10-31T01:21:33;32.15;;;14.40;;
56425;SDS011;42330;43.620;3.856;2022-10-31T01:23:58;37.92;;;15.50;;
56425;SDS011;42330;43.620;3.856;2022-10-31T01:26:28;39.15;;;14.65;;
56425;SDS011;42330;43.620;3.856;2022-10-31T01:28:58;29.90;;;14.32;;
56425;SDS011;42330;43.620;3.856;2022-10-31T01:31:31;31.30;;;14.10;;
56425;SDS011;42330;43.620;3.856;2022-10-31T01:33:59;31.90;;;14.57;;
56425;SDS011;42330;43.620;3.856;2022-10-31T01:36:26;28.98;;;14.43;;
56425;SDS011;42330;43.620;3.856;2022-10-31T01:38:55;30.45;;;14.82;;
56425;SDS011;42330;43.620;3.856;2022-10-31T01:41:24;33.35;;;15.15;;
56425;SDS011;42330;43.620;3.856;2022-10-31T01:43:53;35.05;;;14.35;;
56425;SDS011;42330;43.620;3.856;2022-10-31T01:46:22;32.85;;;14.27;;
56425;SDS011;42330;43.620;3.856;2022-10-31T01:48:55;39.30;;;14.55;;
56425;SDS011;42330;43.620;3.856;2022-10-31T01:51:23;33.15;;;14.43;;
56425;SDS011;42330;43.620;3.856;2022-10-31T01:54:03;28.90;;;13.15;;
56425;SDS011;42330;43.620;3.856;2022-10-31T01:56:31;29.00;;;14.73;;
56425;SDS011;42330;43.620;3.856;2022-10-31T01:59:01;29.88;;;13.25;;
56425;SDS011;42330;43.620;3.856;2022-10-31T02:01:30;32.20;;;13.85;;
56425;SDS011;42330;43.620;3.856;2022-10-31T02:03:56;33.28;;;13.80;;
56425;SDS011;42330;43.620;3.856;2022-10-31T02:06:41;31.45;;;13.60;;
56425;SDS011;42330;43.620;3.856;2022-10-31T02:09:13;30.02;;;13.95;;
56425;SDS011;42330;43.620;3.856;2022-10-31T02:11:40;39.25;;;14.95;;
56425;SDS011;42330;43.620;3.856;2022-10-31T02:14:07;32.03;;;13.98;;
56425;SDS011;42330;43.620;3.856;2022-10-31T02:16:32;30.20;;;12.95;;
56425;SDS011;42330;43.620;3.856;2022-10-31T02:18:58;33.35;;;13.73;;
56425;SDS011;42330;43.620;3.856;2022-10-31T02:27:07;31.23;;;13.13;;
56425;SDS011;42330;43.620;3.856;2022-10-31T02:37:36;28.42;;;12.57;;
56425;SDS011;42330;43.620;3.856;2022-10-31T02:40:39;31.02;;;11.57;;
56425;SDS011;42330;43.620;3.856;2022-10-31T02:48:36;27.75;;;11.20;;
56425;SDS011;42330;43.620;3.856;2022-10-31T02:51:04;23.10;;;10.82;;
56425;SDS011;42330;43.620;3.856;2022-10-31T02:53:32;27.88;;;11.45;;
56425;SDS011;42330;43.620;3.856;2022-10-31T02:56:06;25.77;;;11.18;;
56425;SDS011;42330;43.620;3.856;2022-10-31T02:58:35;25.00;;;11.13;;
56425;SDS011;42330;43.620;3.856;2022-10-31T03:03:57;26.50;;;10.73;;
56425;SDS011;42330;43.620;3.856;2022-10-31T03:09:14;32.85;;;10.60;;
56425;SDS011;42330;43.620;3.856;2022-10-31T03:14:18;21.98;;;9.93;;
56425;SDS011;42330;43.620;3.856;2022-10-31T03:16:48;29.77;;;10.23;;
56425;SDS011;42330;43.620;3.856;2022-10-31T03:19:38;19.30;;;9.65;;
56425;SDS011;42330;43.620;3.856;2022-10-31T03:24:37;27.77;;;10.00;;
56425;SDS011;42330;43.620;3.856;2022-10-31T03:27:05;31.40;;;10.57;;
56425;SDS011;42330;43.620;3.856;2022-10-31T03:29:36;25.67;;;9.93;;
56425;SDS011;42330;43.620;3.856;2022-10-31T03:32:05;25.02;;;9.45;;
56425;SDS011;42330;43.620;3.856;2022-10-31T03:34:35;26.40;;;9.68;;
56425;SDS011;42330;43.620;3.856;2022-10-31T03:37:03;26.70;;;10.55;;
56425;SDS011;42330;43.620;3.856;2022-10-31T03:39:32;21.55;;;10.02;;
56425;SDS011;42330;43.620;3.856;2022-10-31T03:42:03;27.05;;;9.80;;
56425;SDS011;42330;43.620;3.856;2022-10-31T03:44:32;29.52;;;9.88;;
56425;SDS011;42330;43.620;3.856;2022-10-31T03:46:59;27.15;;;10.27;;
56425;SDS011;42330;43.620;3.856;2022-10-31T03:49:26;28.55;;;10.70;;
56425;SDS011;42330;43.620;3.856;2022-10-31T03:52:01;26.70;;;9.70;;
56425;SDS011;42330;43.620;3.856;2022-10-31T03:54:43;27.77;;;10.05;;
56425;SDS011;42330;43.620;3.856;2022-10-31T03:59:53;26.48;;;9.65;;
56425;SDS011;42330;43.620;3.856;2022-10-31T04:02:34;25.52;;;9.77;;
56425;SDS011;42330;43.620;3.856;2022-10-31T04:05:05;23.55;;;9.73;;
56425;SDS011;42330;43.620;3.856;2022-10-31T04:07:34;23.50;;;9.43;;
56425;SDS011;42330;43.620;3.856;2022-10-31T04:10:07;20.75;;;9.02;;
56425;SDS011;42330;43.620;3.856;2022-10-31T04:12:34;23.33;;;9.18;;
56425;SDS011;42330;43.620;3.856;2022-10-31T04:15:03;24.50;;;10.13;;
56425;SDS011;42330;43.620;3.856;2022-10-31T04:17:31;22.15;;;10.02;;
56425;SDS011;42330;43.620;3.856;2022-10-31T04:20:02;22.67;;;9.55;;
56425;SDS011;42330;43.620;3.856;2022-10-31T04:22:28;26.60;;;10.05;;
56425;SDS011;42330;43.620;3.856;2022-10-31T04:24:54;26.45;;;9.57;;
56425;SDS011;42330;43.620;3.856;2022-10-31T04:27:20;25.25;;;9.70;;
56425;SDS011;42330;43.620;3.856;2022-10-31T04:29:45;23.40;;;9.80;;
56425;SDS011;42330;43.620;3.856;2022-10-31T04:32:11;27.25;;;9.85;;
56425;SDS011;42330;43.620;3.856;2022-10-31T04:34:37;28.20;;;10.13;;
56425;SDS011;42330;43.620;3.856;2022-10-31T04:37:02;29.90;;;9.82;;
56425;SDS011;42330;43.620;3.856;2022-10-31T04:39:28;27.67;;;10.02;;
56425;SDS011;42330;43.620;3.856;2022-10-31T04:41:54;25.20;;;9.20;;
56425;SDS011;42330;43.620;3.856;2022-10-31T04:44:19;25.38;;;10.15;;
56425;SDS011;42330;43.620;3.856;2022-10-31T04:46:45;24.40;;;10.48;;
56425;SDS011;42330;43.620;3.856;2022-10-31T04:49:11;27.13;;;10.43;;
56425;SDS011;42330;43.620;3.856;2022-10-31T04:51:36;27.00;;;10.63;;
56425;SDS011;42330;43.620;3.856;2022-10-31T04:54:02;23.65;;;10.05;;
56425;SDS011;42330;43.620;3.856;2022-10-31T04:56:28;27.85;;;10.82;;
56425;SDS011;42330;43.620;3.856;2022-10-31T04:58:54;21.20;;;10.27;;
56425;SDS011;42330;43.620;3.856;2022-10-31T05:01:19;24.60;;;10.38;;
56425;SDS011;42330;43.620;3.856;2022-10-31T05:03:45;22.92;;;10.50;;
56425;SDS011;42330;43.620;3.856;2022-10-31T05:06:11;25.05;;;10.43;;
56425;SDS011;42330;43.620;3.856;2022-10-31T05:08:36;26.17;;;10.95;;
56425;SDS011;42330;43.620;3.856;2022-10-31T05:11:02;20.55;;;10.30;;
56425;SDS011;42330;43.620;3.856;2022-10-31T05:13:28;26.98;;;10.43;;
56425;SDS011;42330;43.620;3.856;2022-10-31T05:15:54;26.20;;;11.15;;
56425;SDS011;42330;43.620;3.856;2022-10-31T05:18:20;23.42;;;9.70;;
56425;SDS011;42330;43.620;3.856;2022-10-31T05:20:45;24.60;;;10.35;;
56425;SDS011;42330;43.620;3.856;2022-10-31T05:23:11;28.27;;;10.20;;
56425;SDS011;42330;43.620;3.856;2022-10-31T05:25:37;24.85;;;10.20;;
56425;SDS011;42330;43.620;3.856;2022-10-31T05:28:02;22.58;;;10.55;;
56425;SDS011;42330;43.620;3.856;2022-10-31T05:30:29;24.17;;;10.23;;
56425;SDS011;42330;43.620;3.856;2022-10-31T05:32:56;27.88;;;10.20;;
56425;SDS011;42330;43.620;3.856;2022-10-31T05:35:26;26.85;;;10.55;;
56425;SDS011;42330;43.620;3.856;2022-10-31T05:37:54;24.70;;;10.27;;
56425;SDS011;42330;43.620;3.856;2022-10-31T05:40:20;22.42;;;9.60;;
56425;SDS011;42330;43.620;3.856;2022-10-31T05:42:46;24.15;;;9.95;;
56425;SDS011;42330;43.620;3.856;2022-10-31T05:45:14;24.50;;;9.63;;
56425;SDS011;42330;43.620;3.856;2022-10-31T05:47:40;20.85;;;9.68;;
56425;SDS011;42330;43.620;3.856;2022-10-31T05:50:06;21.40;;;9.68;;
56425;SDS011;42330;43.620;3.856;2022-10-31T05:52:33;23.23;;;9.88;;
56425;SDS011;42330;43.620;3.856;2022-10-31T05:54:59;23.83;;;9.93;;
56425;SDS011;42330;43.620;3.856;2022-10-31T05:57:25;25.67;;;10.18;;
56425;SDS011;42330;43.620;3.856;2022-10-31T05:59:51;26.40;;;9.68;;
56425;SDS011;42330;43.620;3.856;2022-10-31T06:02:18;26.55;;;9.98;;
56425;SDS011;42330;43.620;3.856;2022-10-31T06:04:45;25.00;;;10.20;;
56425;SDS011;42330;43.620;3.856;2022-10-31T06:07:10;24.35;;;10.55;;
56425;SDS011;42330;43.620;3.856;2022-10-31T06:09:36;26.52;;;9.88;;
56425;SDS011;42330;43.620;3.856;2022-10-31T06:12:02;27.33;;;9.88;;
56425;SDS011;42330;43.620;3.856;2022-10-31T06:14:28;22.52;;;10.43;;
56425;SDS011;42330;43.620;3.856;2022-10-31T06:16:54;23.00;;;10.13;;
56425;SDS011;42330;43.620;3.856;2022-10-31T06:19:20;32.33;;;10.88;;
56425;SDS011;42330;43.620;3.856;2022-10-31T06:21:46;25.40;;;9.85;;
56425;SDS011;42330;43.620;3.856;2022-10-31T06:24:11;26.65;;;9.90;;
56425;SDS011;42330;43.620;3.856;2022-10-31T06:26:37;24.58;;;9.50;;
56425;SDS011;42330;43.620;3.856;2022-10-31T06:29:02;22.85;;;9.27;;
56425;SDS011;42330;43.620;3.856;2022-10-31T06:31:28;22.95;;;10.30;;
56425;SDS011;42330;43.620;3.856;2022-10-31T06:33:54;25.83;;;10.10;;
56425;SDS011;42330;43.620;3.856;2022-10-31T06:36:19;24.98;;;9.98;;
56425;SDS011;42330;43.620;3.856;2022-10-31T06:38:45;23.80;;;10.00;;
56425;SDS011;42330;43.620;3.856;2022-10-31T06:41:10;26.13;;;10.27;;
56425;SDS011;42330;43.620;3.856;2022-10-31T06:43:36;27.90;;;10.13;;
56425;SDS011;42330;43.620;3.856;2022-10-31T06:46:02;23.13;;;9.70;;
56425;SDS011;42330;43.620;3.856;2022-10-31T06:48:30;22.05;;;9.88;;
56425;SDS011;42330;43.620;3.856;2022-10-31T06:50:59;25.42;;;9.60;;
56425;SDS011;42330;43.620;3.856;2022-10-31T06:53:26;24.05;;;9.77;;
56425;SDS011;42330;43.620;3.856;2022-10-31T06:55:54;26.88;;;9.95;;
56425;SDS011;42330;43.620;3.856;2022-10-31T06:58:20;27.25;;;10.25;;
56425;SDS011;42330;43.620;3.856;2022-10-31T07:00:46;24.75;;;10.07;;
56425;SDS011;42330;43.620;3.856;2022-10-31T07:03:12;20.52;;;9.07;;
56425;SDS011;42330;43.620;3.856;2022-10-31T07:05:40;27.85;;;10.05;;
56425;SDS011;42330;43.620;3.856;2022-10-31T07:08:07;23.17;;;8.73;;
56425;SDS011;42330;43.620;3.856;2022-10-31T07:10:35;24.00;;;9.18;;
56425;SDS011;42330;43.620;3.856;2022-10-31T07:13:03;25.48;;;9.15;;
56425;SDS011;42330;43.620;3.856;2022-10-31T07:15:33;25.52;;;9.30;;
56425;SDS011;42330;43.620;3.856;2022-10-31T07:18:03;21.00;;;9.20;;
56425;SDS011;42330;43.620;3.856;2022-10-31T07:20:31;21.50;;;9.52;;
56425;SDS011;42330;43.620;3.856;2022-10-31T07:22:57;22.20;;;8.70;;
56425;SDS011;42330;43.620;3.856;2022-10-31T07:25:23;23.92;;;9.38;;
56425;SDS011;42330;43.620;3.856;2022-10-31T07:27:49;18.35;;;8.95;;
56425;SDS011;42330;43.620;3.856;2022-10-31T07:30:15;21.55;;;9.25;;
56425;SDS011;42330;43.620;3.856;2022-10-31T07:32:45;20.27;;;8.73;;
56425;SDS011;42330;43.620;3.856;2022-10-31T07:35:13;30.83;;;9.13;;
56425;SDS011;42330;43.620;3.856;2022-10-31T07:37:40;30.95;;;9.27;;
56425;SDS011;42330;43.620;3.856;2022-10-31T07:40:07;23.65;;;9.02;;
56425;SDS011;42330;43.620;3.856;2022-10-31T07:42:37;21.42;;;8.52;;
56425;SDS011;42330;43.620;3.856;2022-10-31T07:45:04;23.70;;;9.48;;
56425;SDS011;42330;43.620;3.856;2022-10-31T07:47:37;20.40;;;8.82;;
56425;SDS011;42330;43.620;3.856;2022-10-31T07:50:07;20.33;;;8.43;;
56425;SDS011;42330;43.620;3.856;2022-10-31T07:52:34;21.23;;;8.57;;
56425;SDS011;42330;43.620;3.856;2022-10-31T07:55:00;21.15;;;8.48;;
56425;SDS011;42330;43.620;3.856;2022-10-31T07:57:26;26.73;;;9.15;;
56425;SDS011;42330;43.620;3.856;2022-10-31T07:59:51;26.80;;;9.52;;
56425;SDS011;42330;43.620;3.856;2022-10-31T08:02:17;17.17;;;8.95;;
56425;SDS011;42330;43.620;3.856;2022-10-31T08:04:43;25.00;;;9.63;;
56425;SDS011;42330;43.620;3.856;2022-10-31T08:07:08;23.95;;;9.07;;
56425;SDS011;42330;43.620;3.856;2022-10-31T08:09:34;27.25;;;9.68;;
56425;SDS011;42330;43.620;3.856;2022-10-31T08:12:00;25.50;;;9.82;;
56425;SDS011;42330;43.620;3.856;2022-10-31T08:14:26;25.27;;;9.75;;
56425;SDS011;42330;43.620;3.856;2022-10-31T08:16:52;24.05;;;9.18;;
56425;SDS011;42330;43.620;3.856;2022-10-31T08:19:18;29.40;;;9.25;;
56425;SDS011;42330;43.620;3.856;2022-10-31T08:21:44;28.52;;;9.55;;
56425;SDS011;42330;43.620;3.856;2022-10-31T08:24:09;22.23;;;8.85;;
56425;SDS011;42330;43.620;3.856;2022-10-31T08:26:35;22.73;;;8.95;;
56425;SDS011;42330;43.620;3.856;2022-10-31T08:29:01;23.13;;;9.30;;
56425;SDS011;42330;43.620;3.856;2022-10-31T08:31:27;25.30;;;9.18;;
56425;SDS011;42330;43.620;3.856;2022-10-31T08:33:53;21.95;;;8.50;;
56425;SDS011;42330;43.620;3.856;2022-10-31T08:36:19;21.58;;;8.48;;
56425;SDS011;42330;43.620;3.856;2022-10-31T08:38:46;22.92;;;8.57;;
56425;SDS011;42330;43.620;3.856;2022-10-31T08:41:12;27.73;;;8.93;;
56425;SDS011;42330;43.620;3.856;2022-10-31T08:43:38;23.08;;;8.65;;
56425;SDS011;42330;43.620;3.856;2022-10-31T08:46:03;24.30;;;8.50;;
56425;SDS011;42330;43.620;3.856;2022-10-31T08:48:29;20.70;;;8.57;;
56425;SDS011;42330;43.620;3.856;2022-10-31T08:50:57;26.92;;;8.88;;
56425;SDS011;42330;43.620;3.856;2022-10-31T08:53:23;32.40;;;8.93;;
56425;SDS011;42330;43.620;3.856;2022-10-31T08:55:49;21.17;;;8.20;;
56425;SDS011;42330;43.620;3.856;2022-10-31T08:58:16;28.95;;;8.75;;
56425;SDS011;42330;43.620;3.856;2022-10-31T09:00:43;24.20;;;8.85;;
56425;SDS011;42330;43.620;3.856;2022-10-31T09:03:11;27.00;;;8.52;;
56425;SDS011;42330;43.620;3.856;2022-10-31T09:05:38;23.15;;;8.75;;
56425;SDS011;42330;43.620;3.856;2022-10-31T09:08:05;24.85;;;8.90;;
56425;SDS011;42330;43.620;3.856;2022-10-31T09:12:59;23.42;;;8.23;;
56425;SDS011;42330;43.620;3.856;2022-10-31T09:15:26;28.60;;;9.18;;
56425;SDS011;42330;43.620;3.856;2022-10-31T09:17:52;24.63;;;8.75;;
56425;SDS011;42330;43.620;3.856;2022-10-31T09:20:19;25.23;;;8.35;;
56425;SDS011;42330;43.620;3.856;2022-10-31T09:22:45;29.48;;;7.82;;
56425;SDS011;42330;43.620;3.856;2022-10-31T09:25:11;27.33;;;8.77;;
56425;SDS011;42330;43.620;3.856;2022-10-31T09:27:36;30.67;;;7.78;;
56425;SDS011;42330;43.620;3.856;2022-10-31T09:30:03;28.13;;;8.15;;
56425;SDS011;42330;43.620;3.856;2022-10-31T09:32:29;23.27;;;7.65;;
56425;SDS011;42330;43.620;3.856;2022-10-31T09:34:55;30.23;;;8.63;;
56425;SDS011;42330;43.620;3.856;2022-10-31T09:37:20;27.52;;;8.15;;
56425;SDS011;42330;43.620;3.856;2022-10-31T09:39:46;20.85;;;7.68;;
56425;SDS011;42330;43.620;3.856;2022-10-31T09:45:30;19.80;;;7.32;;
56425;SDS011;42330;43.620;3.856;2022-10-31T09:56:05;22.15;;;7.15;;
56425;SDS011;42330;43.620;3.856;2022-10-31T09:58:37;26.33;;;8.02;;
56425;SDS011;42330;43.620;3.856;2022-10-31T10:01:15;24.00;;;6.68;;
56425;SDS011;42330;43.620;3.856;2022-10-31T10:03:46;22.35;;;6.95;;
56425;SDS011;42330;43.620;3.856;2022-10-31T10:06:22;17.38;;;6.00;;
56425;SDS011;42330;43.620;3.856;2022-10-31T10:08:51;23.98;;;6.55;;
56425;SDS011;42330;43.620;3.856;2022-10-31T10:11:27;27.83;;;6.68;;
56425;SDS011;42330;43.620;3.856;2022-10-31T10:14:14;23.73;;;6.70;;
56425;SDS011;42330;43.620;3.856;2022-10-31T10:25:20;23.77;;;6.35;;
56425;SDS011;42330;43.620;3.856;2022-10-31T10:33:11;23.98;;;5.68;;
56425;SDS011;42330;43.620;3.856;2022-10-31T10:35:41;21.47;;;5.73;;
56425;SDS011;42330;43.620;3.856;2022-10-31T10:38:26;28.92;;;6.07;;
56425;SDS011;42330;43.620;3.856;2022-10-31T10:41:10;26.17;;;5.60;;
56425;SDS011;42330;43.620;3.856;2022-10-31T10:43:56;23.02;;;5.95;;
56425;SDS011;42330;43.620;3.856;2022-10-31T10:59:56;35.38;;;6.57;;
56425;SDS011;42330;43.620;3.856;2022-10-31T11:02:26;34.58;;;6.13;;
56425;SDS011;42330;43.620;3.856;2022-10-31T11:04:56;30.35;;;5.80;;
56425;SDS011;42330;43.620;3.856;2022-10-31T11:07:23;27.65;;;5.93;;
56425;SDS011;42330;43.620;3.856;2022-10-31T11:09:49;30.75;;;6.18;;
56425;SDS011;42330;43.620;3.856;2022-10-31T11:12:22;32.75;;;5.68;;
56425;SDS011;42330;43.620;3.856;2022-10-31T11:14:55;28.08;;;5.57;;
56425;SDS011;42330;43.620;3.856;2022-10-31T11:17:32;25.35;;;5.35;;
56425;SDS011;42330;43.620;3.856;2022-10-31T11:20:02;23.25;;;5.50;;
56425;SDS011;42330;43.620;3.856;2022-10-31T11:25:21;24.63;;;5.88;;
56425;SDS011;42330;43.620;3.856;2022-10-31T11:27:58;29.05;;;5.75;;
56425;SDS011;42330;43.620;3.856;2022-10-31T11:30:28;29.02;;;6.05;;
56425;SDS011;42330;43.620;3.856;2022-10-31T11:32:55;23.27;;;5.75;;
56425;SDS011;42330;43.620;3.856;2022-10-31T11:35:22;31.08;;;5.72;;
56425;SDS011;42330;43.620;3.856;2022-10-31T11:37:50;25.65;;;5.65;;
56425;SDS011;42330;43.620;3.856;2022-10-31T11:40:19;20.85;;;5.00;;
56425;SDS011;42330;43.620;3.856;2022-10-31T11:42:47;30.48;;;6.00;;
56425;SDS011;42330;43.620;3.856;2022-10-31T11:45:16;31.20;;;6.38;;
56425;SDS011;42330;43.620;3.856;2022-10-31T11:47:52;29.83;;;6.15;;
56425;SDS011;42330;43.620;3.856;2022-10-31T11:50:37;26.58;;;5.45;;
56425;SDS011;42330;43.620;3.856;2022-10-31T11:53:12;27.65;;;6.07;;
56425;SDS011;42330;43.620;3.856;2022-10-31T11:56:02;39.47;;;6.32;;
56425;SDS011;42330;43.620;3.856;2022-10-31T11:58:39;31.83;;;6.05;;
56425;SDS011;42330;43.620;3.856;2022-10-31T12:01:08;31.23;;;5.95;;
56425;SDS011;42330;43.620;3.856;2022-10-31T12:06:36;36.88;;;6.28;;
56425;SDS011;42330;43.620;3.856;2022-10-31T12:14:21;30.20;;;5.85;;
56425;SDS011;42330;43.620;3.856;2022-10-31T12:17:15;26.98;;;5.57;;
56425;SDS011;42330;43.620;3.856;2022-10-31T12:22:31;19.75;;;5.45;;
56425;SDS011;42330;43.620;3.856;2022-10-31T12:36:21;30.15;;;6.07;;
56425;SDS011;42330;43.620;3.856;2022-10-31T12:41:45;24.55;;;5.68;;
56425;SDS011;42330;43.620;3.856;2022-10-31T12:52:23;34.85;;;6.70;;
56425;SDS011;42330;43.620;3.856;2022-10-31T12:57:36;31.52;;;5.93;;
56425;SDS011;42330;43.620;3.856;2022-10-31T13:00:13;29.10;;;5.95;;
56425;SDS011;42330;43.620;3.856;2022-10-31T13:05:23;24.80;;;5.88;;
56425;SDS011;42330;43.620;3.856;2022-10-31T13:08:18;31.50;;;5.95;;
56425;SDS011;42330;43.620;3.856;2022-10-31T13:10:55;36.33;;;6.28;;
56425;SDS011;42330;43.620;3.856;2022-10-31T13:16:19;27.33;;;5.72;;
56425;SDS011;42330;43.620;3.856;2022-10-31T13:18:51;25.40;;;5.20;;
56425;SDS011;42330;43.620;3.856;2022-10-31T13:21:27;24.73;;;5.63;;
56425;SDS011;42330;43.620;3.856;2022-10-31T13:24:00;27.63;;;5.80;;
56425;SDS011;42330;43.620;3.856;2022-10-31T13:26:37;24.67;;;5.60;;
56425;SDS011;42330;43.620;3.856;2022-10-31T13:29:11;23.15;;;5.93;;
56425;SDS011;42330;43.620;3.856;2022-10-31T13:31:58;29.00;;;5.68;;
56425;SDS011;42330;43.620;3.856;2022-10-31T13:39:26;29.52;;;5.55;;
56425;SDS011;42330;43.620;3.856;2022-10-31T13:42:22;30.52;;;6.65;;
56425;SDS011;42330;43.620;3.856;2022-10-31T13:45:11;26.33;;;5.70;;
56425;SDS011;42330;43.620;3.856;2022-10-31T13:47:40;32.70;;;5.90;;
56425;SDS011;42330;43.620;3.856;2022-10-31T13:50:24;32.65;;;5.95;;
56425;SDS011;42330;43.620;3.856;2022-10-31T13:55:39;31.15;;;6.20;;
56425;SDS011;42330;43.620;3.856;2022-10-31T13:58:25;28.45;;;5.53;;
56425;SDS011;42330;43.620;3.856;2022-10-31T14:03:31;28.75;;;6.50;;
56425;SDS011;42330;43.620;3.856;2022-10-31T14:06:00;34.20;;;6.07;;
56425;SDS011;42330;43.620;3.856;2022-10-31T14:08:26;26.35;;;6.05;;
56425;SDS011;42330;43.620;3.856;2022-10-31T14:10:55;31.10;;;5.90;;
56425;SDS011;42330;43.620;3.856;2022-10-31T14:13:43;29.75;;;5.82;;
56425;SDS011;42330;43.620;3.856;2022-10-31T14:16:20;25.90;;;5.90;;
56425;SDS011;42330;43.620;3.856;2022-10-31T14:23:54;29.05;;;6.15;;
56425;SDS011;42330;43.620;3.856;2022-10-31T14:28:46;29.75;;;6.18;;
56425;SDS011;42330;43.620;3.856;2022-10-31T14:34:02;29.08;;;6.43;;
56425;SDS011;42330;43.620;3.856;2022-10-31T14:39:11;31.58;;;5.85;;
56425;SDS011;42330;43.620;3.856;2022-10-31T14:42:22;27.25;;;6.60;;
56425;SDS011;42330;43.620;3.856;2022-10-31T14:46:02;29.88;;;6.13;;
56425;SDS011;42330;43.620;3.856;2022-10-31T14:50:51;29.98;;;7.00;;
56425;SDS011;42330;43.620;3.856;2022-10-31T14:53:23;29.55;;;5.97;;
56425;SDS011;42330;43.620;3.856;2022-10-31T14:56:00;26.30;;;6.28;;
56425;SDS011;42330;43.620;3.856;2022-10-31T14:59:01;28.67;;;5.88;;
56425;SDS011;42330;43.620;3.856;2022-10-31T15:03:58;23.45;;;5.80;;
56425;SDS011;42330;43.620;3.856;2022-10-31T15:06:30;28.83;;;6.00;;
56425;SDS011;42330;43.620;3.856;2022-10-31T15:09:04;27.45;;;6.15;;
56425;SDS011;42330;43.620;3.856;2022-10-31T15:11:35;31.88;;;6.50;;
56425;SDS011;42330;43.620;3.856;2022-10-31T15:14:05;34.55;;;6.88;;
56425;SDS011;42330;43.620;3.856;2022-10-31T15:16:50;29.85;;;6.45;;
56425;SDS011;42330;43.620;3.856;2022-10-31T15:19:19;28.63;;;6.60;;
56425;SDS011;42330;43.620;3.856;2022-10-31T15:21:50;32.58;;;6.38;;
56425;SDS011;42330;43.620;3.856;2022-10-31T15:24:18;31.98;;;6.85;;
56425;SDS011;42330;43.620;3.856;2022-10-31T15:26:45;29.42;;;6.18;;
56425;SDS011;42330;43.620;3.856;2022-10-31T15:29:16;34.08;;;6.93;;
56425;SDS011;42330;43.620;3.856;2022-10-31T15:32:28;24.50;;;6.30;;
56425;SDS011;42330;43.620;3.856;2022-10-31T15:34:50;32.35;;;6.55;;
56425;SDS011;42330;43.620;3.856;2022-10-31T15:37:18;23.55;;;5.95;;
56425;SDS011;42330;43.620;3.856;2022-10-31T15:39:45;27.45;;;5.95;;
56425;SDS011;42330;43.620;3.856;2022-10-31T15:44:44;25.33;;;6.03;;
56425;SDS011;42330;43.620;3.856;2022-10-31T15:47:18;24.45;;;5.65;;
56425;SDS011;42330;43.620;3.856;2022-10-31T15:49:48;25.13;;;6.13;;
56425;SDS011;42330;43.620;3.856;2022-10-31T15:55:00;30.45;;;6.03;;
56425;SDS011;42330;43.620;3.856;2022-10-31T15:57:29;28.15;;;6.80;;
56425;SDS011;42330;43.620;3.856;2022-10-31T15:59:55;30.98;;;6.55;;
56425;SDS011;42330;43.620;3.856;2022-10-31T16:02:22;33.03;;;6.82;;
56425;SDS011;42330;43.620;3.856;2022-10-31T16:04:52;30.17;;;6.15;;
56425;SDS011;42330;43.620;3.856;2022-10-31T16:07:22;28.00;;;6.20;;
56425;SDS011;42330;43.620;3.856;2022-10-31T16:12:19;30.10;;;6.40;;
56425;SDS011;42330;43.620;3.856;2022-10-31T16:14:46;27.75;;;6.57;;
56425;SDS011;42330;43.620;3.856;2022-10-31T16:17:13;34.72;;;6.72;;
56425;SDS011;42330;43.620;3.856;2022-10-31T16:19:47;29.00;;;7.07;;
56425;SDS011;42330;43.620;3.856;2022-10-31T16:22:14;26.92;;;6.28;;
56425;SDS011;42330;43.620;3.856;2022-10-31T16:25:08;37.55;;;6.78;;
56425;SDS011;42330;43.620;3.856;2022-10-31T16:27:37;29.67;;;7.03;;
56425;SDS011;42330;43.620;3.856;2022-10-31T16:33:10;31.48;;;6.40;;
56425;SDS011;42330;43.620;3.856;2022-10-31T16:36:01;27.02;;;6.10;;
56425;SDS011;42330;43.620;3.856;2022-10-31T16:38:45;34.55;;;6.97;;
56425;SDS011;42330;43.620;3.856;2022-10-31T16:41:11;28.88;;;6.60;;
56425;SDS011;42330;43.620;3.856;2022-10-31T16:43:36;57.50;;;7.88;;
56425;SDS011;42330;43.620;3.856;2022-10-31T16:46:02;29.67;;;7.15;;
56425;SDS011;42330;43.620;3.856;2022-10-31T16:48:29;27.02;;;6.80;;
56425;SDS011;42330;43.620;3.856;2022-10-31T16:50:54;27.70;;;6.88;;
56425;SDS011;42330;43.620;3.856;2022-10-31T16:53:20;34.13;;;8.10;;
56425;SDS011;42330;43.620;3.856;2022-10-31T16:58:33;33.70;;;7.03;;
56425;SDS011;42330;43.620;3.856;2022-10-31T17:01:00;29.48;;;7.47;;
56425;SDS011;42330;43.620;3.856;2022-10-31T17:03:29;38.22;;;7.55;;
56425;SDS011;42330;43.620;3.856;2022-10-31T17:05:55;31.00;;;7.60;;
56425;SDS011;42330;43.620;3.856;2022-10-31T17:08:21;39.75;;;7.75;;
56425;SDS011;42330;43.620;3.856;2022-10-31T17:10:50;28.50;;;7.28;;
56425;SDS011;42330;43.620;3.856;2022-10-31T17:13:19;32.58;;;7.30;;
56425;SDS011;42330;43.620;3.856;2022-10-31T17:15:48;33.90;;;7.55;;
56425;SDS011;42330;43.620;3.856;2022-10-31T17:18:17;35.55;;;7.10;;
56425;SDS011;42330;43.620;3.856;2022-10-31T17:20:43;32.65;;;7.75;;
56425;SDS011;42330;43.620;3.856;2022-10-31T17:23:10;28.48;;;6.93;;
56425;SDS011;42330;43.620;3.856;2022-10-31T17:25:37;31.85;;;7.78;;